createdAt,value
2023-03-28T00:01:54.608Z,2.70
2023-03-28T00:04:24.426Z,2.70
2023-03-28T00:06:53.730Z,2.63
2023-03-28T00:09:22.660Z,2.93
2023-03-28T00:11:51.826Z,2.87
2023-03-28T00:14:20.273Z,3.40
2023-03-28T00:16:48.981Z,3.30
2023-03-28T00:19:20.797Z,3.10
2023-03-28T00:21:51.426Z,3.30
2023-03-28T00:24:22.195Z,3.23
2023-03-28T00:26:54.629Z,3.17
2023-03-28T00:29:26.425Z,3.60
2023-03-28T00:31:55.258Z,3.60
2023-03-28T00:34:25.120Z,3.40
2023-03-28T00:36:55.182Z,3.93
2023-03-28T00:39:24.389Z,3.37
2023-03-28T00:41:57.863Z,3.50
2023-03-28T00:44:45.859Z,3.93
2023-03-28T00:47:28.512Z,3.83
2023-03-28T00:50:03.575Z,6.63
2023-03-28T00:52:39.070Z,5.20
2023-03-28T00:55:13.679Z,3.83
2023-03-28T00:57:45.240Z,3.57
2023-03-28T01:00:18.830Z,3.43
2023-03-28T01:02:52.512Z,3.80
2023-03-28T01:05:27.286Z,4.47
2023-03-28T01:08:03.232Z,4.23
2023-03-28T01:10:33.825Z,3.73
2023-03-28T01:13:04.452Z,4.63
2023-03-28T01:15:33.778Z,3.90
2023-03-28T01:18:11.432Z,4.03
2023-03-28T01:21:20.271Z,4.60
2023-03-28T01:24:48.432Z,3.37
2023-03-28T01:27:24.508Z,4.50
2023-03-28T01:30:38.353Z,4.30
2023-03-28T01:34:40.083Z,3.13
2023-03-28T01:37:31.560Z,3.23
2023-03-28T01:40:26.096Z,3.90
2023-03-28T01:43:22.490Z,3.67
2023-03-28T01:46:00.565Z,3.23
2023-03-28T01:48:47.094Z,3.70
2023-03-28T01:51:26.164Z,3.87
2023-03-28T01:54:09.830Z,3.77
2023-03-28T01:56:44.225Z,4.27
2023-03-28T01:59:21.165Z,3.90
2023-03-28T02:02:20.444Z,3.53
2023-03-28T02:04:51.320Z,3.80
2023-03-28T02:07:24.711Z,4.57
2023-03-28T02:10:18.331Z,3.57
2023-03-28T02:13:12.055Z,4.87
2023-03-28T02:15:58.280Z,4.10
2023-03-28T02:18:55.615Z,4.30
2023-03-28T02:21:51.677Z,3.83
2023-03-28T02:24:36.288Z,4.20
2023-03-28T02:27:18.532Z,3.73
2023-03-28T02:29:55.565Z,3.53
2023-03-28T02:32:36.338Z,3.57
2023-03-28T02:35:09.260Z,3.97
2023-03-28T02:37:50.456Z,3.57
2023-03-28T02:40:42.906Z,3.57
2023-03-28T02:43:45.973Z,4.07
2023-03-28T02:46:34.259Z,3.50
2023-03-28T02:49:33.059Z,3.57
2023-03-28T02:52:20.263Z,3.67
2023-03-28T02:54:57.425Z,4.10
2023-03-28T02:57:37.522Z,4.33
2023-03-28T03:00:13.157Z,3.47
2023-03-28T03:02:44.884Z,3.77
2023-03-28T03:05:13.898Z,4.03
2023-03-28T03:07:42.884Z,4.10
2023-03-28T03:10:14.162Z,4.13
2023-03-28T03:12:46.892Z,4.17
2023-03-28T03:15:17.592Z,3.93
2023-03-28T03:17:56.890Z,3.67
2023-03-28T03:20:27.726Z,3.70
2023-03-28T03:22:56.670Z,4.13
2023-03-28T03:25:26.520Z,4.00
2023-03-28T03:28:30.676Z,4.33
2023-03-28T03:31:01.287Z,4.40
2023-03-28T03:33:48.508Z,4.13
2023-03-28T03:36:20.326Z,4.40
2023-03-28T03:38:49.229Z,4.20
2023-03-28T03:41:22.608Z,4.03
2023-03-28T03:43:51.292Z,4.20
2023-03-28T03:46:21.159Z,3.67
2023-03-28T03:48:51.272Z,3.43
2023-03-28T03:51:20.378Z,4.07
2023-03-28T03:53:51.699Z,4.40
2023-03-28T03:56:24.051Z,4.30
2023-03-28T03:59:00.073Z,4.47
2023-03-28T04:01:34.924Z,4.50
2023-03-28T04:04:29.680Z,4.40
2023-03-28T04:07:14.630Z,4.73
2023-03-28T04:09:43.708Z,5.73
2023-03-28T04:12:13.302Z,5.93
2023-03-28T04:14:50.651Z,8.20
2023-03-28T04:17:44.427Z,9.80
2023-03-28T04:20:20.991Z,8.10
2023-03-28T04:23:01.331Z,6.43
2023-03-28T04:25:31.619Z,6.00
2023-03-28T04:28:09.363Z,5.43
2023-03-28T04:30:44.520Z,5.23
2023-03-28T04:33:49.658Z,5.27
2023-03-28T04:36:22.440Z,5.17
2023-03-28T04:39:02.438Z,5.90
2023-03-28T04:41:49.649Z,6.50
2023-03-28T04:44:47.415Z,7.07
2023-03-28T04:47:16.147Z,6.93
2023-03-28T04:49:46.185Z,7.87
2023-03-28T04:52:14.856Z,7.10
2023-03-28T04:54:45.593Z,6.90
2023-03-28T04:57:17.800Z,8.07
2023-03-28T04:59:49.623Z,8.20
2023-03-28T05:02:39.590Z,8.40
2023-03-28T05:05:11.224Z,8.10
2023-03-28T05:07:39.874Z,8.37
2023-03-28T05:10:12.837Z,8.80
2023-03-28T05:12:42.774Z,9.23
2023-03-28T05:15:22.096Z,9.10
2023-03-28T05:18:11.626Z,10.30
2023-03-28T05:20:41.989Z,10.07
2023-03-28T05:23:11.194Z,9.43
2023-03-28T05:25:42.422Z,9.70
2023-03-28T05:28:11.831Z,10.40
2023-03-28T05:30:49.111Z,9.37
2023-03-28T05:33:18.013Z,9.93
2023-03-28T05:35:49.138Z,10.70
2023-03-28T05:38:17.930Z,11.20
2023-03-28T05:40:52.132Z,10.20
2023-03-28T05:43:20.702Z,9.87
2023-03-28T05:45:49.898Z,10.30
2023-03-28T05:48:23.734Z,9.60
2023-03-28T05:50:53.572Z,10.80
2023-03-28T05:53:23.243Z,11.63
2023-03-28T05:55:51.813Z,10.80
2023-03-28T05:58:20.302Z,11.03
2023-03-28T06:00:48.853Z,11.17
2023-03-28T06:03:17.849Z,10.50
2023-03-28T06:05:48.192Z,9.80
2023-03-28T06:08:28.662Z,9.57
2023-03-28T06:11:02.500Z,8.90
2023-03-28T06:13:36.915Z,9.40
2023-03-28T06:16:09.994Z,10.73
2023-03-28T06:18:38.415Z,9.27
2023-03-28T06:21:07.564Z,9.30
2023-03-28T06:23:37.528Z,9.70
2023-03-28T06:26:06.600Z,9.33
2023-03-28T06:28:41.315Z,9.50
2023-03-28T06:31:23.573Z,9.27
2023-03-28T06:33:52.272Z,10.27
2023-03-28T06:36:22.686Z,10.73
2023-03-28T06:38:53.583Z,10.20
2023-03-28T06:41:24.064Z,10.70
2023-03-28T06:43:52.388Z,8.93
2023-03-28T06:46:40.961Z,9.40
2023-03-28T06:49:09.740Z,9.03
2023-03-28T06:51:56.915Z,9.70
2023-03-28T06:54:27.091Z,9.67
2023-03-28T06:56:55.635Z,10.00
2023-03-28T06:59:24.328Z,9.90
2023-03-28T07:01:58.740Z,8.80
2023-03-28T07:04:32.790Z,10.10
2023-03-28T07:07:01.505Z,9.40
2023-03-28T07:09:31.747Z,8.93
2023-03-28T07:12:07.663Z,9.37
2023-03-28T07:14:36.459Z,8.67
2023-03-28T07:17:04.994Z,9.80
2023-03-28T07:19:34.412Z,9.07
2023-03-28T07:22:02.857Z,8.60
2023-03-28T07:24:32.870Z,8.90
2023-03-28T07:29:37.869Z,9.20
2023-03-28T07:32:06.931Z,10.13
2023-03-28T07:34:35.582Z,8.50
2023-03-28T07:37:05.392Z,8.97
2023-03-28T07:40:01.614Z,8.17
2023-03-28T07:42:31.846Z,8.47
2023-03-28T07:45:00.661Z,8.57
2023-03-28T07:47:30.497Z,7.93
2023-03-28T07:49:59.105Z,8.13
2023-03-28T07:52:28.874Z,8.67
2023-03-28T07:54:57.602Z,8.40
2023-03-28T07:57:27.624Z,8.20
2023-03-28T08:00:15.732Z,7.33
2023-03-28T08:02:52.368Z,8.07
2023-03-28T08:05:21.816Z,8.43
2023-03-28T08:07:54.017Z,7.90
2023-03-28T08:10:22.548Z,8.83
2023-03-28T08:12:52.996Z,8.10
2023-03-28T08:15:21.701Z,7.50
2023-03-28T08:17:50.402Z,7.80
2023-03-28T08:20:21.369Z,7.53
2023-03-28T08:23:05.304Z,7.67
2023-03-28T08:25:46.436Z,7.63
2023-03-28T08:28:18.085Z,7.60
2023-03-28T08:30:46.449Z,6.83
2023-03-28T08:33:15.815Z,7.47
2023-03-28T08:35:44.859Z,5.80
2023-03-28T08:38:18.608Z,6.37
2023-03-28T08:40:56.774Z,5.67
2023-03-28T08:43:49.963Z,5.20
2023-03-28T08:46:22.429Z,5.67
2023-03-28T08:48:52.868Z,4.97
2023-03-28T08:51:27.460Z,5.50
2023-03-28T08:54:08.147Z,5.30
2023-03-28T08:56:43.798Z,4.87
2023-03-28T08:59:16.797Z,4.20
2023-03-28T09:01:47.276Z,4.13
2023-03-28T09:04:28.589Z,4.10
2023-03-28T09:07:22.433Z,4.17
2023-03-28T09:10:10.708Z,2.70
2023-03-28T09:13:07.352Z,3.17
2023-03-28T09:16:00.058Z,3.87
2023-03-28T09:18:52.193Z,3.33
2023-03-28T09:21:32.241Z,3.47
2023-03-28T09:24:26.593Z,3.37
2023-03-28T09:27:25.282Z,2.87
2023-03-28T09:30:04.284Z,3.50
2023-03-28T09:32:39.528Z,3.83
2023-03-28T09:35:18.061Z,3.20
2023-03-28T09:37:51.582Z,4.30
2023-03-28T09:40:24.964Z,4.80
2023-03-28T09:43:23.454Z,7.37
2023-03-28T09:46:15.527Z,9.23
2023-03-28T09:49:05.859Z,7.97
2023-03-28T09:51:39.155Z,5.73
2023-03-28T09:54:09.554Z,6.27
2023-03-28T09:56:42.352Z,5.23
2023-03-28T09:59:29.140Z,4.40
2023-03-28T10:02:04.276Z,3.63
2023-03-28T10:04:38.225Z,3.20
2023-03-28T10:07:34.733Z,3.80
2023-03-28T10:10:21.946Z,3.17
2023-03-28T10:13:00.457Z,2.97
2023-03-28T10:15:36.496Z,3.27
2023-03-28T10:18:28.369Z,3.10
2023-03-28T10:21:19.778Z,2.70
2023-03-28T10:24:00.972Z,2.07
2023-03-28T10:26:30.579Z,3.10
2023-03-28T10:29:06.323Z,2.87
2023-03-28T10:31:36.229Z,2.70
2023-03-28T10:34:33.738Z,2.50
2023-03-28T10:37:32.048Z,3.23
2023-03-28T10:40:30.345Z,3.10
2023-03-28T10:43:17.761Z,3.77
2023-03-28T10:46:06.634Z,3.13
2023-03-28T10:48:59.085Z,3.27
2023-03-28T10:51:31.497Z,2.87
2023-03-28T10:54:32.577Z,3.00
2023-03-28T10:57:11.209Z,2.73
2023-03-28T10:59:52.479Z,2.37
2023-03-28T11:03:08.068Z,2.90
2023-03-28T11:06:05.860Z,2.67
2023-03-28T11:09:02.271Z,2.40
2023-03-28T11:12:22.929Z,2.80
2023-03-28T11:15:12.075Z,2.27
2023-03-28T11:18:01.932Z,2.30
2023-03-28T11:20:44.283Z,2.50
2023-03-28T11:23:40.024Z,2.43
2023-03-28T11:26:40.033Z,2.77
2023-03-28T11:29:44.519Z,2.80
2023-03-28T11:32:23.145Z,2.53
2023-03-28T11:35:15.452Z,4.10
2023-03-28T11:37:52.984Z,3.23
2023-03-28T11:40:28.750Z,2.90
2023-03-28T11:43:08.567Z,2.77
2023-03-28T11:45:52.084Z,2.50
2023-03-28T11:48:31.744Z,2.83
2023-03-28T11:51:11.073Z,2.10
2023-03-28T11:53:56.570Z,2.30
2023-03-28T11:56:44.632Z,2.47
2023-03-28T11:59:24.269Z,3.00
2023-03-28T12:02:02.686Z,2.40
2023-03-28T12:04:39.414Z,2.17
2023-03-28T12:07:17.218Z,2.10
2023-03-28T12:10:05.999Z,2.50
2023-03-28T12:12:49.404Z,2.60
2023-03-28T12:15:22.752Z,2.77
2023-03-28T12:18:20.873Z,2.40
2023-03-28T12:21:00.661Z,3.07
2023-03-28T12:23:59.845Z,3.10
2023-03-28T12:27:03.467Z,2.67
2023-03-28T12:29:59.315Z,2.93
2023-03-28T12:32:43.327Z,2.43
2023-03-28T12:35:23.381Z,2.43
2023-03-28T12:38:31.698Z,2.83
2023-03-28T12:41:20.710Z,2.50
2023-03-28T12:43:52.960Z,2.50
2023-03-28T12:46:33.117Z,2.67
2023-03-28T12:49:20.642Z,2.60
2023-03-28T12:51:55.284Z,2.63
2023-03-28T12:54:28.605Z,3.00
2023-03-28T12:57:13.252Z,2.60
2023-03-28T13:00:16.577Z,2.50
2023-03-28T13:03:27.082Z,2.50
2023-03-28T13:06:03.899Z,2.43
2023-03-28T13:08:51.734Z,2.33
2023-03-28T13:11:33.443Z,2.50
2023-03-28T13:14:16.635Z,2.40
2023-03-28T13:16:53.831Z,2.47
2023-03-28T13:19:45.678Z,3.17
2023-03-28T13:22:32.737Z,2.50
2023-03-28T13:25:32.480Z,2.70
2023-03-28T13:28:22.621Z,2.83
2023-03-28T13:31:13.260Z,2.60
2023-03-28T13:33:48.880Z,2.30
2023-03-28T13:36:25.616Z,3.30
2023-03-28T13:39:25.450Z,2.83
2023-03-28T13:42:00.883Z,3.27
2023-03-28T13:44:44.078Z,3.07
2023-03-28T13:47:23.457Z,2.87
2023-03-28T13:50:00.230Z,3.00
2023-03-28T13:52:28.917Z,3.30
2023-03-28T13:55:16.613Z,2.70
2023-03-28T13:57:47.076Z,2.97
2023-03-28T14:00:20.223Z,2.93
2023-03-28T14:02:51.502Z,4.17
2023-03-28T14:05:25.954Z,3.40
2023-03-28T14:07:56.788Z,3.27
2023-03-28T14:10:32.196Z,3.33
2023-03-28T14:13:07.147Z,3.80
2023-03-28T14:15:39.817Z,3.53
2023-03-28T14:18:16.541Z,3.20
2023-03-28T14:20:47.482Z,3.03
2023-03-28T14:23:38.177Z,3.40
2023-03-28T14:26:16.394Z,3.67
2023-03-28T14:28:47.675Z,3.23
2023-03-28T14:31:30.328Z,3.20
2023-03-28T14:33:59.582Z,3.50
2023-03-28T14:36:31.237Z,3.83
2023-03-28T14:39:13.362Z,4.70
2023-03-28T14:41:44.577Z,3.60
2023-03-28T14:44:15.153Z,3.60
2023-03-28T14:46:44.527Z,4.10
2023-03-28T14:49:20.667Z,3.33
2023-03-28T14:51:56.069Z,3.80
2023-03-28T14:54:29.770Z,4.37
2023-03-28T14:57:00.146Z,3.90
2023-03-28T14:59:41.726Z,4.30
2023-03-28T15:02:23.793Z,3.40
2023-03-28T15:04:53.049Z,3.13
2023-03-28T15:07:24.756Z,4.23
2023-03-28T15:10:10.165Z,3.33
2023-03-28T15:12:47.302Z,3.80
2023-03-28T15:15:22.507Z,3.43
2023-03-28T15:17:53.866Z,3.50
2023-03-28T15:20:27.554Z,3.57
2023-03-28T15:22:59.506Z,4.60
2023-03-28T15:25:29.764Z,4.07
2023-03-28T15:28:02.020Z,3.40
2023-03-28T15:30:36.277Z,3.73
2023-03-28T15:33:07.055Z,3.27
2023-03-28T15:35:40.610Z,4.20
2023-03-28T15:38:17.664Z,4.17
2023-03-28T15:40:48.470Z,4.00
2023-03-28T15:43:39.528Z,4.43
2023-03-28T15:46:14.897Z,3.33
2023-03-28T15:48:44.370Z,4.00
2023-03-28T15:51:17.656Z,4.17
2023-03-28T15:53:48.932Z,3.70
2023-03-28T15:56:24.842Z,4.10
2023-03-28T15:58:55.376Z,4.70
2023-03-28T16:01:29.333Z,4.13
2023-03-28T16:04:28.855Z,3.50
2023-03-28T16:07:12.357Z,3.80
2023-03-28T16:09:43.280Z,3.87
2023-03-28T16:12:15.229Z,4.67
2023-03-28T16:14:49.148Z,4.07
2023-03-28T16:17:32.428Z,3.87
2023-03-28T16:20:21.428Z,4.40
2023-03-28T16:22:50.773Z,3.60
2023-03-28T16:25:19.637Z,4.47
2023-03-28T16:27:48.008Z,3.97
2023-03-28T16:30:22.360Z,4.20
2023-03-28T16:32:52.321Z,4.50
2023-03-28T16:35:20.980Z,4.20
2023-03-28T16:37:49.485Z,4.40
2023-03-28T16:40:18.329Z,4.20
2023-03-28T16:42:46.813Z,4.63
2023-03-28T16:45:15.242Z,5.07
2023-03-28T16:47:44.044Z,4.80
2023-03-28T16:50:14.842Z,4.20
2023-03-28T16:52:43.924Z,4.57
2023-03-28T16:55:18.630Z,4.47
2023-03-28T16:57:47.503Z,5.60
2023-03-28T17:00:20.114Z,4.43
2023-03-28T17:02:49.212Z,5.60
2023-03-28T17:05:19.857Z,4.70
2023-03-28T17:07:48.308Z,5.30
2023-03-28T17:10:17.838Z,5.13
2023-03-28T17:12:46.838Z,5.33
2023-03-28T17:15:15.640Z,4.50
2023-03-28T17:17:44.124Z,5.27
2023-03-28T17:20:13.403Z,5.83
2023-03-28T17:22:43.152Z,5.30
2023-03-28T17:25:12.105Z,5.13
2023-03-28T17:27:40.686Z,5.07
2023-03-28T17:30:11.731Z,6.30
2023-03-28T17:32:41.280Z,6.00
2023-03-28T17:35:12.120Z,4.77
2023-03-28T17:37:42.219Z,5.40
2023-03-28T17:40:11.683Z,4.80
2023-03-28T17:42:40.094Z,5.83
2023-03-28T17:45:10.754Z,6.23
2023-03-28T17:47:39.815Z,4.80
2023-03-28T17:50:10.816Z,6.20
2023-03-28T17:52:41.615Z,5.10
2023-03-28T17:55:13.987Z,5.80
2023-03-28T17:57:42.514Z,5.80
2023-03-28T18:00:12.494Z,6.10
2023-03-28T18:02:46.345Z,5.10
2023-03-28T18:05:35.376Z,5.90
2023-03-28T18:08:04.290Z,5.10
2023-03-28T18:10:34.138Z,5.60
2023-03-28T18:13:02.758Z,4.90
2023-03-28T18:15:31.369Z,5.03
2023-03-28T18:18:01.899Z,5.03
2023-03-28T18:20:30.824Z,4.87
2023-03-28T18:22:59.285Z,5.40
2023-03-28T18:25:29.758Z,4.90
2023-03-28T18:28:01.873Z,4.67
2023-03-28T18:30:31.510Z,5.07
2023-03-28T18:33:00.356Z,4.57
2023-03-28T18:35:29.223Z,4.13
2023-03-28T18:37:58.647Z,3.77
2023-03-28T18:40:27.690Z,4.00
2023-03-28T18:42:56.189Z,3.70
2023-03-28T18:45:26.515Z,3.70
2023-03-28T18:47:55.089Z,2.87
2023-03-28T18:50:23.588Z,3.30
2023-03-28T18:52:53.023Z,4.20
2023-03-28T18:55:21.687Z,3.23
2023-03-28T18:57:50.447Z,3.80
2023-03-28T19:00:20.570Z,4.40
2023-03-28T19:02:51.299Z,4.10
2023-03-28T19:05:20.280Z,3.37
2023-03-28T19:07:48.908Z,3.17
2023-03-28T19:10:17.800Z,3.43
2023-03-28T19:12:47.164Z,4.17
2023-03-28T19:15:15.664Z,4.23
2023-03-28T19:17:44.161Z,3.90
2023-03-28T19:20:16.330Z,3.93
2023-03-28T19:22:45.064Z,3.87
2023-03-28T19:25:14.462Z,3.97
2023-03-28T19:27:43.767Z,4.23
2023-03-28T19:30:13.003Z,4.60
2023-03-28T19:32:41.531Z,4.27
2023-03-28T19:35:12.054Z,4.60
2023-03-28T19:37:42.003Z,4.73
2023-03-28T19:40:16.067Z,4.33
2023-03-28T19:42:44.949Z,3.70
2023-03-28T19:45:14.037Z,4.00
2023-03-28T19:47:42.603Z,4.40
2023-03-28T19:50:11.880Z,3.70
2023-03-28T19:52:42.626Z,4.50
2023-03-28T19:55:12.312Z,4.17
2023-03-28T19:57:41.060Z,4.07
2023-03-28T20:00:12.154Z,3.73
2023-03-28T20:02:44.046Z,4.40
2023-03-28T20:05:12.926Z,4.27
2023-03-28T20:07:43.064Z,3.67
2023-03-28T20:10:12.743Z,3.97
2023-03-28T20:12:41.448Z,4.57
2023-03-28T20:15:12.799Z,4.00
2023-03-28T20:17:41.548Z,3.20
2023-03-28T20:20:11.654Z,3.70
2023-03-28T20:22:40.203Z,3.70
2023-03-28T20:25:14.169Z,3.43
2023-03-28T20:27:42.737Z,3.33
2023-03-28T20:30:13.219Z,4.43
2023-03-28T20:32:41.615Z,4.10
2023-03-28T20:35:11.823Z,4.00
2023-03-28T20:37:40.675Z,4.30
2023-03-28T20:40:12.222Z,4.30
2023-03-28T20:42:41.881Z,3.73
2023-03-28T20:45:22.308Z,4.13
2023-03-28T20:47:56.406Z,4.43
2023-03-28T20:50:33.792Z,4.20
2023-03-28T20:53:06.167Z,3.57
2023-03-28T20:55:36.774Z,4.30
2023-03-28T20:58:05.429Z,3.87
2023-03-28T21:00:35.834Z,4.00
2023-03-28T21:03:04.761Z,3.83
2023-03-28T21:05:33.318Z,3.60
2023-03-28T21:08:02.231Z,4.40
2023-03-28T21:10:33.402Z,3.70
2023-03-28T21:13:03.316Z,4.30
2023-03-28T21:15:32.379Z,3.60
2023-03-28T21:18:01.057Z,3.87
2023-03-28T21:20:29.892Z,3.87
2023-03-28T21:22:59.814Z,3.97
2023-03-28T21:25:28.447Z,3.77
2023-03-28T21:27:57.273Z,3.40
2023-03-28T21:30:27.137Z,4.73
2023-03-28T21:33:02.165Z,4.03
2023-03-28T21:35:32.483Z,3.87
2023-03-28T21:38:01.180Z,4.10
2023-03-28T21:40:29.706Z,4.27
2023-03-28T21:42:58.166Z,3.80
2023-03-28T21:45:27.996Z,4.27
2023-03-28T21:47:57.022Z,4.47
2023-03-28T21:50:31.251Z,4.07
2023-03-28T21:53:00.305Z,3.87
2023-03-28T21:55:28.853Z,4.10
2023-03-28T21:57:57.517Z,4.17
2023-03-28T22:00:28.462Z,4.53
2023-03-28T22:02:57.470Z,3.60
2023-03-28T22:05:29.605Z,3.80
2023-03-28T22:07:59.096Z,3.73
2023-03-28T22:10:29.489Z,4.47
2023-03-28T22:12:59.279Z,4.63
2023-03-28T22:15:31.549Z,4.00
2023-03-28T22:18:00.290Z,3.90
2023-03-28T22:20:29.780Z,4.27
2023-03-28T22:23:00.652Z,4.00
2023-03-28T22:25:35.807Z,4.30
2023-03-28T22:28:06.600Z,4.43
2023-03-28T22:30:38.377Z,4.60
2023-03-28T22:33:09.221Z,4.67
2023-03-28T22:35:39.426Z,4.17
2023-03-28T22:38:08.432Z,4.87
2023-03-28T22:40:37.200Z,4.53
2023-03-28T22:43:05.825Z,4.00
2023-03-28T22:45:35.754Z,4.30
2023-03-28T22:48:04.375Z,4.70
2023-03-28T22:50:33.788Z,4.33
2023-03-28T22:53:02.470Z,4.40
2023-03-28T22:55:31.008Z,4.90
2023-03-28T22:57:59.512Z,4.77
2023-03-28T23:00:28.796Z,5.00
2023-03-28T23:02:58.846Z,5.03
2023-03-28T23:05:27.995Z,4.30
2023-03-28T23:07:56.812Z,4.50
2023-03-28T23:10:25.217Z,4.33
2023-03-28T23:12:53.744Z,4.80
2023-03-28T23:15:22.205Z,3.80
2023-03-28T23:17:50.981Z,4.23
2023-03-28T23:20:21.996Z,4.60
2023-03-28T23:22:50.500Z,4.50
2023-03-28T23:25:20.123Z,4.33
2023-03-28T23:27:48.937Z,4.80
2023-03-28T23:30:18.096Z,4.43
2023-03-28T23:32:46.741Z,4.20
2023-03-28T23:35:15.983Z,4.20
2023-03-28T23:37:45.903Z,4.20
2023-03-28T23:40:15.619Z,4.57
2023-03-28T23:42:45.377Z,4.60
2023-03-28T23:45:15.633Z,5.00
2023-03-28T23:47:44.790Z,5.13
2023-03-28T23:50:14.309Z,4.40
2023-03-28T23:52:45.704Z,4.13
2023-03-28T23:55:17.031Z,4.30
2023-03-28T23:57:45.417Z,4.83
